• Join FlightAware (Why Join?)
  • Login
  • US Flag 
12:02PM EDT


 

Airport Tracker/Info


-or-


 

Live Flight TrackerFlight Track Log ✈ DAL3793 ✈ 24-Jun-2013 ✈ KJFK - KCLT

Flight Track Log - Related Links

Times and Time Zones

All times are in EDT time to prevent confusion due to time zone crossing. See the DAL3793 flight status page for this flight to view local times or setup timezone preferences in your user account.

Time Position Orientation Groundspeed Altitude Reporting Facility
EDT Latitude Longitude Course Direction KTS MPH feet Rate Location/Type
07:11PM 40.6333 -73.8500 217° Southwest 182 209 2,500  Level New York TRACON
07:12PM 40.5833 -73.9167 225° Southwest 240 276 4,300 2,100 Climbing New York TRACON
07:13PM 40.4811 -74.0285 229° Southwest  Level FlightAware Approximate
07:13PM 40.5167 -73.9667 210° Southwest 267 307 6,700  Level New York TRACON
07:14PM 40.4229 -74.1158 229° Southwest  Level FlightAware Approximate
07:14PM 40.4667 -74.0167 217° Southwest 277 319 9,000  Level New York TRACON
07:15PM 40.3648 -74.2030 232° Southwest  Level FlightAware Approximate
07:15PM 40.4167 -74.0833 225° Southwest 286 329 10,800  Level New York TRACON
07:16PM 40.3103 -74.2941 232° Southwest  Level FlightAware Approximate
07:16PM 40.3667 -74.1833 237° Southwest 334 384 11,800  Level New York TRACON
07:17PM 40.2525 -74.3808 217° Southwest  Level FlightAware Approximate
07:17PM 40.3000 -74.2833 229° Southwest 332 382 13,700  Level New York TRACON
07:19PM 40.2447 -74.4175 242° Southwest 338 389 15,800 1,620 Climbing New York Center
07:20PM 40.2456 -74.5289 271° West 302 348 17,400 1,320 Climbing New York Center
07:21PM 40.2628 -74.6361 282° West 324 373 18,600 660 Climbing New York Center
07:22PM 40.2794 -74.7622 280° West 343 395 18,800 480 Climbing New York Center
07:23PM 40.2994 -74.9075 280° West 356 410 19,600 1,020 Climbing New York Center
07:24PM 40.3139 -75.0281 279° West 374 430 20,900 1,020 Climbing New York Center
07:25PM 40.2944 -75.1603 259° West 369 425 21,700 600 Climbing New York Center
07:26PM 40.2747 -75.2950 259° West 369 425 22,200 360 Climbing New York Center
07:27PM 40.2547 -75.4378 260° West 382 440 22,500 240 Climbing New York Center
07:28PM 40.2322 -75.5806 258° West 396 456 22,800 240 Climbing New York Center
07:29PM 40.2014 -75.7225 254° West 408 470 23,100 300 Climbing New York Center
07:30PM 40.1536 -75.8631 246° West 420 483 23,500 780 Climbing New York Center
07:31PM 40.0919 -75.9861 237° Southwest 420 483 24,700 900 Climbing New York Center
07:32PM 40.0183 -76.0944 228° Southwest 415 478 25,400 540 Climbing New York Center
07:33PM 39.9308 -76.1878 219° Southwest 405 466 25,800 480 Climbing New York Center
07:34PM 39.8386 -76.2836 219° Southwest 412 474 26,400 540 Climbing New York Center
07:35PM 39.7467 -76.3761 218° Southwest 417 480 26,900 480 Climbing New York Center
07:36PM 39.6458 -76.4861 220° Southwest 405 466 27,500 480 Climbing Washington Center
07:37PM 39.5428 -76.5900 218° Southwest 423 487 28,000 480 Climbing Washington Center
07:38PM 39.4544 -76.6828 219° Southwest 423 487 28,500 540 Climbing Washington Center
07:39PM 39.3639 -76.7781 219° Southwest 423 487 29,100 540 Climbing Washington Center
07:40PM 39.2756 -76.8706 219° Southwest 423 487 29,600 420 Climbing Washington Center
07:41PM 39.1869 -76.9625 219° Southwest 423 487 30,000 180 Climbing Washington Center
07:42PM 39.0961 -77.0572 219° Southwest 423 487 30,000  Level Washington Center
07:43PM 39.0033 -77.1514 218° Southwest 429 494 30,000  Level Washington Center
07:44PM 38.9103 -77.2483 219° Southwest 429 494 30,000  Level Washington Center
07:45PM 38.8131 -77.3447 218° Southwest 429 494 30,000  Level Washington Center
07:46PM 38.7156 -77.4461 219° Southwest 435 501 30,000  Level Washington Center
07:47PM 38.6181 -77.5447 218° Southwest 440 506 30,000  Level Washington Center
07:48PM 38.5186 -77.6456 218° Southwest 450 518 30,000  Level Washington Center
07:49PM 38.4356 -77.7333 220° Southwest 450 518 30,000  Level Washington Center
07:50PM 38.3381 -77.8311 218° Southwest 450 518 30,000  Level Washington Center
07:51PM 38.2403 -77.9286 218° Southwest 450 518 30,000  Level Washington Center
07:52PM 38.1386 -78.0075 211° Southwest 445 512 30,000  Level Washington Center
07:53PM 38.0244 -78.0747 205° Southwest 445 512 30,000  Level Washington Center
07:54PM 37.9042 -78.1419 204° Southwest 440 506 30,000  Level Washington Center
07:55PM 37.8069 -78.1992 205° Southwest 440 506 30,000  Level Washington Center
07:56PM 37.6972 -78.2608 204° Southwest 440 506 30,000  Level Washington Center
07:57PM 37.5767 -78.3328 205° Southwest 440 506 30,000  Level Washington Center
07:58PM 37.4708 -78.3969 206° Southwest 435 501 30,000  Level Washington Center
07:59PM 37.3750 -78.4850 216° Southwest 419 482 30,000  Level Washington Center
08:00PM 37.3014 -78.5944 230° Southwest 419 482 30,000  Level Washington Center
08:01PM 37.2256 -78.7061 230° Southwest 424 488 30,000  Level Washington Center
08:02PM 37.1539 -78.8100 229° Southwest 430 495 30,000  Level Washington Center
08:03PM 37.0714 -78.9264 228° Southwest 442 509 30,000  Level Washington Center
08:04PM 36.9931 -79.0428 230° Southwest 447 514 30,000  Level Washington Center
08:05PM 36.9103 -79.1611 229° Southwest 447 514 30,000  Level Washington Center
08:06PM 36.8292 -79.2947 233° Southwest 447 514 30,000  Level Washington Center
08:07PM 36.7419 -79.4100 227° Southwest 452 520 30,000 -600 Level Washington Center
08:08PM 36.6589 -79.5275 229° Southwest 457 526 28,900 -1,560 Descending Washington Center
08:10PM 36.5064 -79.7358 228° Southwest 444 511 25,700 -1,800 Descending Atlanta Center
08:11PM 36.4269 -79.8483 229° Southwest 444 511 23,900 -1,860 Descending Atlanta Center
08:12PM 36.3372 -79.9742 229° Southwest 444 511 22,000 -960 Descending Atlanta Center
08:13PM 36.2422 -80.0639 217° Southwest 439 505 22,000 -600 Level Atlanta Center
08:14PM 36.1428 -80.1511 215° Southwest 439 505 20,800 -1,920 Descending Atlanta Center
08:15PM 36.0453 -80.2356 215° Southwest 444 511 18,200 -2,400 Descending Atlanta Center
08:16PM 35.9639 -80.3058 215° Southwest 428 493 16,000 -2,460 Descending Atlanta Center
08:17PM 35.8744 -80.3844 215° Southwest 361 415 13,500 -1,740 Descending Atlanta Center
08:17PM 35.8136 -80.4358 214° Southwest 310 357 13,000 -1,080 Descending Atlanta Center
08:18PM 35.7525 -80.4897 216° Southwest 279 321 11,700 -1,380 Descending Atlanta Center
08:19PM 35.6806 -80.5311 205° Southwest 288 331 10,400 -1,320 Descending Atlanta Center
08:20PM 35.6108 -80.5672 203° Southwest 287 330 9,200 -1,740 Descending Atlanta Center
08:21PM 35.5392 -80.6214 212° Southwest 279 321 6,900 -1,500 Descending Atlanta Center
08:22PM 35.4781 -80.6697 213° Southwest 271 312 6,000 -1,080 Descending Atlanta Center
08:24PM 35.4003 -80.7264 211° Southwest 261 300 4,500 -960 Descending Atlanta Center
08:25PM 35.3431 -80.7747 215° Southwest 248 285 4,000 -540 Descending Atlanta Center